Accueil
METAR-TAF:

METAR-TAF

Aéroports :

Koweït, Koweït

Aéroport international de Koweït

latitude: 29-13N, longitude: 047-59E, altitude: 55 m

Observation

Le bulletin a été fait il y a 34 minutes, à 00:00 UTC
Vent 6 kt de sud
Température 8°C
Humidité 42%
Pression 1016 hPa
Visibilité 10 km ou plus
pas de nuages en-dessous de 1500 mètres et pas de cumulonimbus.

METAR: OKBK 140000Z 17006KT CAVOK 08/M04 Q1016 NOSIG

Heure: 03:34 (00:34 UTC)

Prévision

Le bulletin a été fait il y a 7 heures et 49 minutes, à 16:45 UTC
Prévision valable du 12 à 18 UTC au 13 à 24 UTC
Vent 8 kt de nord-ouest avec des rafales jusqu'à 18 kt
Visibilité: 7000 m
Ciel clair

TAF: OKBK 121645Z 1218/1324 32008G18KT 7000 SKC

Observations et prévisions météorologiques de plus de 4000 aéroports (messages METAR et TAF).

Les stations disponibles sont représentées par des disques jaunes et rouges sur la carte.

Passer la souris dessus pour voir le nom de la station.

Cliquer dessus pour voir les observations et prévisions météorologiques.

Pour changer de carte: cliquez sur les boutons verts avec une croix noire pour zoomer, sur le bouton vert avec un tiret pour effectuer un zoom arrière, ou sur les flèches vertes pour les cartes adjacentes.


METAR-TAF: